createdAt,value
2022-11-13T00:02:19.099Z,100.00
2022-11-13T00:05:04.439Z,100.00
2022-11-13T00:07:49.423Z,100.00
2022-11-13T00:10:34.608Z,100.00
2022-11-13T00:13:19.823Z,100.00
2022-11-13T00:16:11.583Z,100.00
2022-11-13T00:18:56.800Z,100.00
2022-11-13T00:21:41.662Z,100.00
2022-11-13T00:24:26.719Z,100.00
2022-11-13T00:27:12.128Z,100.00
2022-11-13T00:29:57.523Z,99.91
2022-11-13T00:32:42.681Z,99.60
2022-11-13T00:35:27.579Z,99.73
2022-11-13T00:38:12.562Z,99.80
2022-11-13T00:40:58.150Z,99.93
2022-11-13T00:43:43.515Z,99.78
2022-11-13T00:46:28.668Z,99.72
2022-11-13T00:49:13.675Z,99.60
2022-11-13T00:52:00.179Z,99.67
2022-11-13T00:54:45.229Z,99.71
2022-11-13T00:57:30.117Z,99.68
2022-11-13T01:00:15.684Z,99.90
2022-11-13T01:03:00.726Z,100.00
2022-11-13T01:05:46.679Z,100.00
2022-11-13T01:08:31.866Z,100.00
2022-11-13T01:11:19.763Z,100.00
2022-11-13T01:14:04.794Z,100.00
2022-11-13T01:16:49.612Z,100.00
2022-11-13T01:19:34.707Z,100.00
2022-11-13T01:22:19.923Z,100.00
2022-11-13T01:25:05.452Z,100.00
2022-11-13T01:27:50.860Z,100.00
2022-11-13T01:30:35.867Z,100.00
2022-11-13T01:33:20.780Z,100.00
2022-11-13T01:36:12.441Z,100.00
2022-11-13T01:38:57.902Z,100.00
2022-11-13T01:41:42.919Z,100.00
2022-11-13T01:44:49.604Z,100.00
2022-11-13T01:47:35.740Z,100.00
2022-11-13T01:50:20.704Z,100.00
2022-11-13T01:53:07.170Z,100.00
2022-11-13T01:55:52.593Z,100.00
2022-11-13T01:58:38.301Z,100.00
2022-11-13T02:01:23.432Z,100.00
2022-11-13T02:04:08.940Z,100.00
2022-11-13T02:06:57.671Z,100.00
2022-11-13T02:09:45.231Z,100.00
2022-11-13T02:12:37.329Z,100.00
2022-11-13T02:15:25.317Z,100.00
2022-11-13T02:18:11.150Z,100.00
2022-11-13T02:21:01.777Z,100.00
2022-11-13T02:23:51.398Z,100.00
2022-11-13T02:26:37.647Z,100.00
2022-11-13T02:29:22.655Z,100.00
2022-11-13T02:32:07.650Z,100.00
2022-11-13T02:34:52.507Z,100.00
2022-11-13T02:37:37.604Z,100.00
2022-11-13T02:40:24.117Z,100.00
2022-11-13T02:43:09.057Z,100.00
2022-11-13T02:45:54.584Z,100.00
2022-11-13T02:48:39.711Z,100.00
2022-11-13T02:51:24.758Z,100.00
2022-11-13T02:54:15.562Z,100.00
2022-11-13T02:57:01.813Z,100.00
2022-11-13T02:59:46.655Z,100.00
2022-11-13T03:02:31.531Z,100.00
2022-11-13T03:05:16.587Z,100.00
2022-11-13T03:08:01.677Z,100.00
2022-11-13T03:10:46.689Z,100.00
2022-11-13T03:13:31.627Z,100.00
2022-11-13T03:16:17.866Z,100.00
2022-11-13T03:19:03.753Z,100.00
2022-11-13T03:21:49.025Z,100.00
2022-11-13T03:24:33.924Z,99.84
2022-11-13T03:27:19.676Z,99.56
2022-11-13T03:30:05.540Z,99.34
2022-11-13T03:32:57.759Z,98.83
2022-11-13T03:35:46.697Z,98.73
2022-11-13T03:38:34.236Z,98.70
2022-11-13T03:41:19.538Z,98.60
2022-11-13T03:44:04.502Z,98.53
2022-11-13T03:46:49.503Z,98.71
2022-11-13T03:49:34.592Z,98.58
2022-11-13T03:52:19.717Z,98.68
2022-11-13T03:55:05.119Z,98.69
2022-11-13T03:57:50.140Z,98.89
2022-11-13T04:00:35.324Z,98.94
2022-11-13T04:03:20.544Z,99.00
2022-11-13T04:06:05.989Z,98.90
2022-11-13T04:08:51.101Z,98.97
2022-11-13T04:11:36.141Z,98.66
2022-11-13T04:14:20.955Z,98.73
2022-11-13T04:17:06.005Z,98.64
2022-11-13T04:19:50.883Z,98.39
2022-11-13T04:22:35.979Z,98.15
2022-11-13T04:25:21.235Z,98.22
2022-11-13T04:28:06.430Z,97.97
2022-11-13T04:30:54.063Z,97.83
2022-11-13T04:33:39.123Z,97.81
2022-11-13T04:36:24.008Z,97.83
2022-11-13T04:39:08.897Z,97.94
2022-11-13T04:42:12.516Z,97.63
2022-11-13T04:44:57.867Z,97.63
2022-11-13T04:47:43.689Z,97.94
2022-11-13T04:50:28.907Z,97.52
2022-11-13T04:53:13.782Z,97.68
2022-11-13T04:55:58.683Z,97.85
2022-11-13T04:58:44.256Z,97.97
2022-11-13T05:01:29.245Z,97.61
2022-11-13T05:04:15.344Z,97.78
2022-11-13T05:07:00.591Z,97.74
2022-11-13T05:09:45.532Z,97.65
2022-11-13T05:12:30.504Z,97.54
2022-11-13T05:15:15.470Z,97.68
2022-11-13T05:18:00.474Z,97.88
2022-11-13T05:20:45.703Z,97.67
2022-11-13T05:23:30.997Z,97.96
2022-11-13T05:26:16.112Z,98.11
2022-11-13T05:29:01.322Z,97.91
2022-11-13T05:31:46.708Z,97.90
2022-11-13T05:34:31.791Z,98.21
2022-11-13T05:37:17.083Z,98.02
2022-11-13T05:40:01.953Z,98.12
2022-11-13T05:42:47.091Z,98.42
2022-11-13T05:45:32.137Z,98.42
2022-11-13T05:48:17.031Z,98.55
2022-11-13T05:51:10.306Z,98.53
2022-11-13T05:53:55.640Z,98.82
2022-11-13T05:56:40.564Z,98.73
2022-11-13T05:59:25.899Z,98.67
2022-11-13T06:02:11.008Z,98.71
2022-11-13T06:04:56.702Z,98.89
2022-11-13T06:07:41.818Z,98.73
2022-11-13T06:10:26.735Z,98.99
2022-11-13T06:13:11.733Z,98.88
2022-11-13T06:16:05.979Z,98.88
2022-11-13T06:18:55.349Z,99.04
2022-11-13T06:21:41.131Z,99.05
2022-11-13T06:24:26.159Z,99.37
2022-11-13T06:27:10.944Z,99.31
2022-11-13T06:29:55.772Z,99.43
2022-11-13T06:32:40.703Z,99.59
2022-11-13T06:35:26.012Z,99.42
2022-11-13T06:38:11.042Z,99.72
2022-11-13T06:40:57.072Z,99.54
2022-11-13T06:43:42.471Z,99.90
2022-11-13T06:46:29.084Z,99.87
2022-11-13T06:49:14.268Z,99.88
2022-11-13T06:51:59.262Z,99.97
2022-11-13T06:54:44.116Z,100.00
2022-11-13T06:57:28.973Z,100.00
2022-11-13T07:00:14.394Z,100.00
2022-11-13T07:02:59.531Z,100.00
2022-11-13T07:05:45.236Z,100.00
2022-11-13T07:08:31.202Z,100.00
2022-11-13T07:11:19.066Z,100.00
2022-11-13T07:14:04.101Z,100.00
2022-11-13T07:17:08.640Z,100.00
2022-11-13T07:19:54.518Z,100.00
2022-11-13T07:22:39.288Z,100.00
2022-11-13T07:25:24.813Z,100.00
2022-11-13T07:28:10.242Z,100.00
2022-11-13T07:30:58.602Z,100.00
2022-11-13T07:33:44.401Z,100.00
2022-11-13T07:36:29.521Z,100.00
2022-11-13T07:39:14.451Z,100.00
2022-11-13T07:41:59.298Z,100.00
2022-11-13T07:44:59.411Z,100.00
2022-11-13T07:47:44.616Z,100.00
2022-11-13T07:50:32.738Z,100.00
2022-11-13T07:53:18.970Z,100.00
2022-11-13T07:56:04.539Z,100.00
2022-11-13T07:58:49.728Z,100.00
2022-11-13T08:01:34.966Z,100.00
2022-11-13T08:04:19.912Z,100.00
2022-11-13T08:07:05.278Z,100.00
2022-11-13T08:09:50.793Z,100.00
2022-11-13T08:12:35.638Z,100.00
2022-11-13T08:15:20.533Z,100.00
2022-11-13T08:18:06.636Z,100.00
2022-11-13T08:20:52.043Z,100.00
2022-11-13T08:23:37.190Z,100.00
2022-11-13T08:26:22.861Z,100.00
2022-11-13T08:29:09.161Z,100.00
2022-11-13T08:31:54.203Z,100.00
2022-11-13T08:34:39.112Z,100.00
2022-11-13T08:37:23.969Z,100.00
2022-11-13T08:40:09.572Z,100.00
2022-11-13T08:42:59.854Z,100.00
2022-11-13T08:45:47.120Z,100.00
2022-11-13T08:48:32.207Z,100.00
2022-11-13T08:51:18.219Z,100.00
2022-11-13T08:54:03.377Z,98.62
2022-11-13T08:56:54.494Z,96.89
2022-11-13T08:59:41.072Z,94.62
2022-11-13T09:02:26.927Z,93.45
2022-11-13T09:05:12.301Z,92.86
2022-11-13T09:07:59.160Z,91.74
2022-11-13T09:10:44.796Z,89.67
2022-11-13T09:13:30.868Z,86.96
2022-11-13T09:16:15.854Z,84.26
2022-11-13T09:19:00.729Z,84.24
2022-11-13T09:21:46.919Z,83.03
2022-11-13T09:24:32.476Z,81.55
2022-11-13T09:27:18.301Z,81.46
2022-11-13T09:30:03.909Z,81.09
2022-11-13T09:32:53.114Z,81.08
2022-11-13T09:35:38.071Z,78.37
2022-11-13T09:38:23.219Z,78.23
2022-11-13T09:41:14.661Z,77.48
2022-11-13T09:44:03.984Z,77.00
2022-11-13T09:47:19.958Z,76.88
2022-11-13T09:50:14.531Z,76.15
2022-11-13T09:52:59.634Z,75.92
2022-11-13T09:55:57.940Z,74.94
2022-11-13T09:58:56.898Z,74.11
2022-11-13T10:02:09.480Z,73.24
2022-11-13T10:05:12.104Z,73.44
2022-11-13T10:08:07.440Z,72.19
2022-11-13T10:10:58.832Z,71.09
2022-11-13T10:13:47.882Z,69.30
2022-11-13T10:16:37.339Z,67.80
2022-11-13T10:19:32.078Z,67.55
2022-11-13T10:22:41.054Z,66.02
2022-11-13T10:25:32.190Z,64.65
2022-11-13T10:28:50.175Z,65.02
2022-11-13T10:31:25.414Z,64.80
2022-11-13T10:34:12.087Z,65.76
2022-11-13T10:37:29.581Z,64.69
2022-11-13T10:40:29.168Z,64.14
2022-11-13T10:43:23.040Z,63.77
2022-11-13T10:46:20.307Z,61.51
2022-11-13T10:49:13.145Z,61.05
2022-11-13T10:52:01.023Z,60.93
2022-11-13T10:54:46.386Z,59.30
2022-11-13T10:57:34.584Z,59.12
2022-11-13T11:00:24.360Z,58.74
2022-11-13T11:03:18.569Z,58.89
2022-11-13T11:06:05.340Z,57.91
2022-11-13T11:08:50.671Z,56.88
2022-11-13T11:11:54.761Z,55.70
2022-11-13T11:14:45.633Z,55.14
2022-11-13T11:17:39.407Z,55.75
2022-11-13T11:20:49.181Z,55.99
2022-11-13T11:23:40.432Z,53.86
2022-11-13T11:26:32.690Z,52.27
2022-11-13T11:29:32.023Z,50.70
2022-11-13T11:32:23.448Z,48.10
2022-11-13T11:35:20.539Z,47.16
2022-11-13T11:38:14.741Z,46.24
2022-11-13T11:41:16.483Z,44.89
2022-11-13T11:44:30.791Z,42.89
2022-11-13T11:47:17.890Z,41.46
2022-11-13T11:50:06.572Z,41.12
2022-11-13T11:53:16.806Z,39.27
2022-11-13T11:56:08.248Z,38.65
2022-11-13T11:59:08.562Z,38.40
2022-11-13T12:02:21.932Z,37.23
2022-11-13T12:05:25.752Z,36.85
2022-11-13T12:08:30.537Z,36.91
2022-11-13T12:11:45.413Z,35.74
2022-11-13T12:15:11.961Z,33.56
2022-11-13T12:18:08.527Z,33.02
2022-11-13T12:20:59.723Z,31.40
2022-11-13T12:24:03.560Z,30.95
2022-11-13T12:27:13.560Z,30.75
2022-11-13T12:30:14.668Z,30.67
2022-11-13T12:33:23.399Z,30.20
2022-11-13T12:36:11.997Z,30.33
2022-11-13T12:39:12.518Z,30.07
2022-11-13T12:42:12.424Z,29.87
2022-11-13T12:45:04.697Z,29.59
2022-11-13T12:47:51.985Z,29.32
2022-11-13T12:50:37.257Z,29.55
2022-11-13T12:53:28.379Z,29.31
2022-11-13T12:56:28.382Z,29.32
2022-11-13T12:59:36.484Z,29.28
2022-11-13T13:02:40.622Z,29.76
2022-11-13T13:05:40.254Z,30.12
2022-11-13T13:09:17.728Z,30.26
2022-11-13T13:12:13.804Z,30.99
2022-11-13T13:15:17.652Z,31.17
2022-11-13T13:18:11.616Z,31.37
2022-11-13T13:21:08.572Z,31.58
2022-11-13T13:23:53.665Z,31.92
2022-11-13T13:26:46.463Z,31.98
2022-11-13T13:29:33.351Z,32.31
2022-11-13T13:32:24.081Z,32.75
2022-11-13T13:35:43.062Z,33.20
2022-11-13T13:38:35.608Z,33.83
2022-11-13T13:41:27.123Z,34.35
2022-11-13T13:44:38.489Z,35.13
2022-11-13T13:47:38.952Z,35.93
2022-11-13T13:50:38.936Z,36.72
2022-11-13T13:53:34.518Z,37.41
2022-11-13T13:56:21.288Z,37.89
2022-11-13T13:59:14.010Z,38.47
2022-11-13T14:02:01.837Z,39.32
2022-11-13T14:04:52.582Z,40.43
2022-11-13T14:07:46.080Z,41.54
2022-11-13T14:10:31.088Z,42.33
2022-11-13T14:13:34.551Z,43.23
2022-11-13T14:16:19.429Z,43.86
2022-11-13T14:19:05.460Z,44.21
2022-11-13T14:21:53.926Z,44.81
2022-11-13T14:24:49.539Z,45.32
2022-11-13T14:27:34.613Z,45.85
2022-11-13T14:30:28.739Z,46.63
2022-11-13T14:33:21.812Z,47.69
2022-11-13T14:36:07.531Z,48.46
2022-11-13T14:38:53.330Z,49.32
2022-11-13T14:41:53.126Z,49.79
2022-11-13T14:44:38.413Z,50.89
2022-11-13T14:47:29.989Z,51.44
2022-11-13T14:50:22.876Z,51.96
2022-11-13T14:53:10.360Z,53.15
2022-11-13T14:56:01.923Z,53.93
2022-11-13T14:58:47.581Z,54.88
2022-11-13T15:01:32.721Z,55.52
2022-11-13T15:04:17.859Z,56.69
2022-11-13T15:07:18.760Z,57.81
2022-11-13T15:10:04.066Z,58.95
2022-11-13T15:12:49.290Z,59.15
2022-11-13T15:15:34.291Z,60.10
2022-11-13T15:18:19.854Z,60.83
2022-11-13T15:21:05.420Z,61.67
2022-11-13T15:23:50.634Z,62.34
2022-11-13T15:26:35.454Z,62.73
2022-11-13T15:29:20.396Z,63.63
2022-11-13T15:32:05.471Z,64.39
2022-11-13T15:34:50.363Z,65.35
2022-11-13T15:37:35.188Z,65.93
2022-11-13T15:40:20.088Z,66.22
2022-11-13T15:43:09.783Z,66.74
2022-11-13T15:45:54.899Z,67.43
2022-11-13T15:48:39.710Z,67.66
2022-11-13T15:51:32.794Z,67.89
2022-11-13T15:54:31.500Z,68.10
2022-11-13T15:57:30.172Z,68.58
2022-11-13T16:00:21.481Z,68.75
2022-11-13T16:03:11.467Z,69.08
2022-11-13T16:05:58.696Z,69.49
2022-11-13T16:08:44.194Z,69.94
2022-11-13T16:11:34.827Z,70.47
2022-11-13T16:14:24.550Z,71.12
2022-11-13T16:17:20.197Z,71.49
2022-11-13T16:20:07.944Z,72.09
2022-11-13T16:22:53.256Z,72.54
2022-11-13T16:25:38.400Z,72.54
2022-11-13T16:28:23.426Z,72.80
2022-11-13T16:31:08.325Z,72.84
2022-11-13T16:33:53.166Z,73.12
2022-11-13T16:36:38.135Z,73.24
2022-11-13T16:39:23.332Z,73.11
2022-11-13T16:42:08.546Z,72.89
2022-11-13T16:44:53.565Z,72.56
2022-11-13T16:47:38.504Z,72.52
2022-11-13T16:50:28.593Z,72.67
2022-11-13T16:53:13.624Z,73.09
2022-11-13T16:55:58.700Z,73.43
2022-11-13T16:58:43.895Z,73.62
2022-11-13T17:01:29.055Z,73.97
2022-11-13T17:04:17.255Z,74.36
2022-11-13T17:07:02.422Z,74.55
2022-11-13T17:09:55.113Z,74.81
2022-11-13T17:12:53.699Z,75.10
2022-11-13T17:15:38.715Z,75.37
2022-11-13T17:18:23.699Z,75.41
2022-11-13T17:21:08.527Z,75.63
2022-11-13T17:23:57.929Z,75.76
2022-11-13T17:26:43.013Z,76.11
2022-11-13T17:29:28.097Z,76.48
2022-11-13T17:32:12.989Z,76.76
2022-11-13T17:34:58.139Z,77.29
2022-11-13T17:37:43.430Z,77.66
2022-11-13T17:40:28.828Z,78.04
2022-11-13T17:43:14.329Z,78.48
2022-11-13T17:45:59.320Z,78.92
2022-11-13T17:48:44.823Z,79.23
2022-11-13T17:51:29.944Z,79.49
2022-11-13T17:54:15.276Z,79.84
2022-11-13T17:57:02.066Z,80.21
2022-11-13T17:59:47.192Z,80.55
2022-11-13T18:02:33.981Z,80.80
2022-11-13T18:05:18.750Z,80.92
2022-11-13T18:08:05.884Z,81.15
2022-11-13T18:10:50.917Z,81.37
2022-11-13T18:13:37.014Z,81.60
2022-11-13T18:16:30.581Z,81.80
2022-11-13T18:19:15.714Z,82.22
2022-11-13T18:22:00.899Z,82.24
2022-11-13T18:24:45.984Z,82.28
2022-11-13T18:27:31.027Z,82.66
2022-11-13T18:30:16.850Z,82.72
2022-11-13T18:33:02.224Z,82.88
2022-11-13T18:35:47.091Z,82.97
2022-11-13T18:38:32.493Z,82.93
2022-11-13T18:41:20.188Z,83.02
2022-11-13T18:44:05.078Z,83.00
2022-11-13T18:46:50.005Z,82.92
2022-11-13T18:49:34.795Z,83.01
2022-11-13T18:52:19.710Z,82.97
2022-11-13T18:55:04.822Z,83.09
2022-11-13T18:57:50.250Z,83.21
2022-11-13T19:00:35.438Z,83.24
2022-11-13T19:03:20.840Z,83.30
2022-11-13T19:06:12.621Z,83.35
2022-11-13T19:09:00.318Z,83.50
2022-11-13T19:11:45.890Z,83.53
2022-11-13T19:14:31.045Z,83.57
2022-11-13T19:17:15.972Z,83.60
2022-11-13T19:20:00.947Z,83.78
2022-11-13T19:22:45.945Z,83.77
2022-11-13T19:25:31.283Z,83.57
2022-11-13T19:28:16.263Z,83.56
2022-11-13T19:31:05.615Z,83.42
2022-11-13T19:34:02.144Z,83.05
2022-11-13T19:36:49.341Z,82.31
2022-11-13T19:39:34.924Z,82.05
2022-11-13T19:42:19.943Z,81.91
2022-11-13T19:45:04.911Z,81.63
2022-11-13T19:47:50.161Z,81.25
2022-11-13T19:50:35.031Z,81.19
2022-11-13T19:53:19.988Z,81.24
2022-11-13T19:56:06.469Z,81.27
2022-11-13T19:58:52.393Z,81.42
2022-11-13T20:01:37.452Z,81.64
2022-11-13T20:04:23.165Z,81.67
2022-11-13T20:07:14.805Z,81.60
2022-11-13T20:09:59.693Z,81.56
2022-11-13T20:12:46.176Z,81.80
2022-11-13T20:15:32.331Z,81.93
2022-11-13T20:18:17.712Z,81.94
2022-11-13T20:21:02.977Z,82.26
2022-11-13T20:23:47.972Z,82.32
2022-11-13T20:26:33.096Z,82.59
2022-11-13T20:29:18.539Z,83.00
2022-11-13T20:32:03.926Z,83.04
2022-11-13T20:34:48.988Z,83.18
2022-11-13T20:37:34.451Z,83.29
2022-11-13T20:40:19.367Z,83.26
2022-11-13T20:43:04.522Z,83.07
2022-11-13T20:45:49.553Z,83.28
2022-11-13T20:48:35.429Z,83.46
2022-11-13T20:51:23.641Z,83.60
2022-11-13T20:54:08.519Z,83.86
2022-11-13T20:56:53.440Z,84.03
2022-11-13T20:59:38.161Z,84.22
2022-11-13T21:02:23.400Z,84.73
2022-11-13T21:05:08.678Z,85.02
2022-11-13T21:07:54.016Z,85.18
2022-11-13T21:10:39.218Z,85.31
2022-11-13T21:13:24.208Z,85.63
2022-11-13T21:16:09.740Z,85.67
2022-11-13T21:18:56.797Z,85.77
2022-11-13T21:21:41.988Z,86.15
2022-11-13T21:24:27.055Z,86.55
2022-11-13T21:27:11.974Z,86.77
2022-11-13T21:29:57.020Z,87.12
2022-11-13T21:32:41.978Z,87.50
2022-11-13T21:35:30.177Z,87.62
2022-11-13T21:38:15.479Z,87.69
2022-11-13T21:41:21.442Z,88.02
2022-11-13T21:44:08.453Z,88.09
2022-11-13T21:46:54.124Z,88.44
2022-11-13T21:49:39.248Z,88.46
2022-11-13T21:52:24.324Z,88.89
2022-11-13T21:55:10.546Z,89.17
2022-11-13T21:57:55.794Z,89.03
2022-11-13T22:00:40.822Z,88.86
2022-11-13T22:03:26.755Z,89.10
2022-11-13T22:06:29.396Z,89.26
2022-11-13T22:09:15.593Z,89.54
2022-11-13T22:12:00.753Z,89.89
2022-11-13T22:14:45.667Z,89.96
2022-11-13T22:17:30.399Z,89.98
2022-11-13T22:20:15.597Z,90.25
2022-11-13T22:23:00.640Z,90.05
2022-11-13T22:25:45.449Z,90.31
2022-11-13T22:28:32.661Z,90.31
2022-11-13T22:31:20.272Z,90.34
2022-11-13T22:34:05.937Z,90.38
2022-11-13T22:36:51.135Z,90.54
2022-11-13T22:39:36.072Z,90.31
2022-11-13T22:42:20.914Z,90.51
2022-11-13T22:45:22.364Z,90.48
2022-11-13T22:48:10.490Z,90.14
2022-11-13T22:50:56.029Z,90.25
2022-11-13T22:53:42.593Z,90.05
2022-11-13T22:56:30.013Z,90.24
2022-11-13T22:59:14.871Z,90.00
2022-11-13T23:01:59.740Z,90.30
2022-11-13T23:04:45.221Z,90.54
2022-11-13T23:07:30.544Z,90.42
2022-11-13T23:10:15.872Z,90.52
2022-11-13T23:13:00.750Z,90.58
2022-11-13T23:15:45.879Z,90.58
2022-11-13T23:18:32.312Z,90.85
2022-11-13T23:21:18.482Z,91.13
2022-11-13T23:24:03.989Z,91.43
2022-11-13T23:26:49.034Z,91.54
2022-11-13T23:29:33.890Z,91.43
2022-11-13T23:32:18.822Z,91.72
2022-11-13T23:35:03.848Z,91.55
2022-11-13T23:37:49.231Z,91.67
2022-11-13T23:40:34.158Z,91.87
2022-11-13T23:43:19.420Z,92.06
2022-11-13T23:46:04.931Z,92.08
2022-11-13T23:48:50.099Z,91.91
2022-11-13T23:51:35.589Z,92.00
2022-11-13T23:54:20.383Z,92.12
2022-11-13T23:57:05.315Z,92.19
2022-11-13T23:59:50.148Z,92.38
